CheckWX is a tool to help pilots better visualize weather data.  It is not intended as a substitute for an official pre-flight weather briefing.

20:25:20 UTC

42J METAR
Keystone Airpark
Keystone Heights, Florida, USA
Current

10 mins ago

K42J 202015Z AUTO 27015G23KT 10SM BKN075 20/02 A2991 RMK A01 TSNO
Observed
Apr-20 @ 20:15 UTC
Wind
  • 270° at 15 KTS
  • Gusting to 23 KTS
Visibility
10 SM
Flight Rules
VFR
Cloud Levels
  • Broken at 7,500' AGL
Temperature
20°C / 68°F
Dewpoint
C / 36°F
Humidity
30%
Altimeter
29.91" Hg
Pressure
1012.92 hPa
Previous

30 mins ago

K42J 201955Z AUTO 27014G24KT 9SM BKN065 19/02 A2992 RMK A01 TSNO
Observed
Apr-20 @ 19:55 UTC
Wind
  • 270° at 14 KTS
  • Gusting to 24 KTS
Visibility
9 SM
Flight Rules
VFR
Cloud Levels
  • Broken at 6,500' AGL
Temperature
19°C / 66°F
Dewpoint
C / 36°F
Humidity
32%
Altimeter
29.92" Hg
Pressure
1013.22 hPa
Previous

50 mins ago

K42J 201935Z AUTO 27015G22KT 10SM FEW060 SCT075 20/01 A2992 RMK A01 TSNO
Observed
Apr-20 @ 19:35 UTC
Wind
  • 270° at 15 KTS
  • Gusting to 22 KTS
Visibility
10 SM
Flight Rules
VFR
Cloud Levels
  • Few at 6,000' AGL
  • Scattered at 7,500' AGL
Temperature
20°C / 68°F
Dewpoint
C / 34°F
Humidity
28%
Altimeter
29.92" Hg
Pressure
1013.22 hPa